createdAt,value
2022-11-05T00:02:05.194Z,7.55
2022-11-05T00:04:50.318Z,7.54
2022-11-05T00:07:38.603Z,7.51
2022-11-05T00:10:06.726Z,7.51
2022-11-05T00:12:51.809Z,7.49
2022-11-05T00:15:36.652Z,7.46
2022-11-05T00:18:03.638Z,7.43
2022-11-05T00:20:30.097Z,7.42
2022-11-05T00:23:22.572Z,7.42
2022-11-05T00:25:59.512Z,7.40
2022-11-05T00:28:26.515Z,7.39
2022-11-05T00:30:53.212Z,7.32
2022-11-05T00:33:19.821Z,7.30
2022-11-05T00:35:46.263Z,7.27
2022-11-05T00:38:12.791Z,7.25
2022-11-05T00:40:39.324Z,7.18
2022-11-05T00:43:24.157Z,7.18
2022-11-05T00:45:50.595Z,7.15
2022-11-05T00:48:35.707Z,7.18
2022-11-05T00:51:02.138Z,7.18
2022-11-05T00:53:28.587Z,7.19
2022-11-05T00:55:55.121Z,7.18
2022-11-05T00:58:22.817Z,7.17
2022-11-05T01:00:55.048Z,7.15
2022-11-05T01:03:24.189Z,7.14
2022-11-05T01:06:07.835Z,7.11
2022-11-05T01:08:34.246Z,7.11
2022-11-05T01:11:00.732Z,7.09
2022-11-05T01:13:31.056Z,7.05
2022-11-05T01:15:57.807Z,7.02
2022-11-05T01:18:25.253Z,7.01
2022-11-05T01:20:52.090Z,6.97
2022-11-05T01:23:19.038Z,6.92
2022-11-05T01:25:45.865Z,6.87
2022-11-05T01:28:12.328Z,6.84
2022-11-05T01:30:39.247Z,6.84
2022-11-05T01:33:06.016Z,6.81
2022-11-05T01:35:32.463Z,6.80
2022-11-05T01:37:58.942Z,6.80
2022-11-05T01:40:25.988Z,6.77
2022-11-05T01:42:52.771Z,6.78
2022-11-05T01:45:22.037Z,6.80
2022-11-05T01:47:57.875Z,6.78
2022-11-05T01:50:35.958Z,6.78
2022-11-05T01:53:32.595Z,6.80
2022-11-05T01:56:05.565Z,6.78
2022-11-05T01:58:42.172Z,6.80
2022-11-05T02:01:08.771Z,6.82
2022-11-05T02:03:36.080Z,6.83
2022-11-05T02:06:03.853Z,6.86
2022-11-05T02:08:48.959Z,6.93
2022-11-05T02:11:18.248Z,6.97
2022-11-05T02:13:44.946Z,7.00
2022-11-05T02:16:33.238Z,7.05
2022-11-05T02:19:29.457Z,7.08
2022-11-05T02:22:29.758Z,7.12
2022-11-05T02:25:24.243Z,7.18
2022-11-05T02:28:09.524Z,7.22
2022-11-05T02:30:41.208Z,7.26
2022-11-05T02:33:19.454Z,7.29
2022-11-05T02:36:06.807Z,7.32
2022-11-05T02:38:45.089Z,7.35
2022-11-05T02:41:27.479Z,7.36
2022-11-05T02:44:11.364Z,7.33
2022-11-05T02:47:05.935Z,7.31
2022-11-05T02:49:53.322Z,7.27
2022-11-05T02:52:32.709Z,7.22
2022-11-05T02:55:25.397Z,7.15
2022-11-05T02:57:51.827Z,7.09
2022-11-05T03:00:33.943Z,7.01
2022-11-05T03:03:00.604Z,6.95
2022-11-05T03:05:39.675Z,6.85
2022-11-05T03:08:15.381Z,6.77
2022-11-05T03:11:01.457Z,6.74
2022-11-05T03:13:53.675Z,6.72
2022-11-05T03:16:42.196Z,6.68
2022-11-05T03:19:22.077Z,6.64
2022-11-05T03:21:56.305Z,6.61
2022-11-05T03:24:35.458Z,6.57
2022-11-05T03:27:10.739Z,6.50
2022-11-05T03:29:44.400Z,6.47
2022-11-05T03:32:14.215Z,6.42
2022-11-05T03:34:56.807Z,6.40
2022-11-05T03:37:27.117Z,6.39
2022-11-05T03:39:57.925Z,6.35
2022-11-05T03:42:26.797Z,6.31
2022-11-05T03:44:58.133Z,6.30
2022-11-05T03:47:30.144Z,6.27
2022-11-05T03:50:11.712Z,6.27
2022-11-05T03:52:45.805Z,6.23
2022-11-05T03:55:12.721Z,6.23
2022-11-05T03:57:43.023Z,6.24
2022-11-05T04:00:10.943Z,6.23
2022-11-05T04:02:37.758Z,6.18
2022-11-05T04:05:05.233Z,6.16
2022-11-05T04:07:50.308Z,6.10
2022-11-05T04:10:35.600Z,6.06
2022-11-05T04:13:20.568Z,6.00
2022-11-05T04:16:05.403Z,5.93
2022-11-05T04:18:31.790Z,5.88
2022-11-05T04:21:16.594Z,5.86
2022-11-05T04:24:01.531Z,5.81
2022-11-05T04:26:27.960Z,5.78
2022-11-05T04:29:13.096Z,5.74
2022-11-05T04:31:39.658Z,5.71
2022-11-05T04:34:06.135Z,5.68
2022-11-05T04:36:32.724Z,5.70
2022-11-05T04:38:59.232Z,5.65
2022-11-05T04:41:26.552Z,5.66
2022-11-05T04:43:53.019Z,5.66
2022-11-05T04:46:19.415Z,5.64
2022-11-05T04:48:45.854Z,5.63
2022-11-05T04:51:12.315Z,5.62
2022-11-05T04:53:38.763Z,5.61
2022-11-05T04:56:22.739Z,5.59
2022-11-05T04:58:49.779Z,5.56
2022-11-05T05:01:21.961Z,5.53
2022-11-05T05:03:52.771Z,5.51
2022-11-05T05:06:20.024Z,5.49
2022-11-05T05:08:48.160Z,5.49
2022-11-05T05:11:17.309Z,5.47
2022-11-05T05:13:43.975Z,5.45
2022-11-05T05:16:18.989Z,5.47
2022-11-05T05:18:46.581Z,5.45
2022-11-05T05:21:32.603Z,5.44
2022-11-05T05:23:59.047Z,5.43
2022-11-05T05:26:25.830Z,5.41
2022-11-05T05:28:53.522Z,5.39
2022-11-05T05:31:21.115Z,5.39
2022-11-05T05:33:47.884Z,5.37
2022-11-05T05:36:14.882Z,5.38
2022-11-05T05:38:41.284Z,5.37
2022-11-05T05:41:07.689Z,5.36
2022-11-05T05:43:34.324Z,5.36
2022-11-05T05:46:10.852Z,5.32
2022-11-05T05:48:39.956Z,5.31
2022-11-05T05:51:11.436Z,5.31
2022-11-05T05:53:38.755Z,5.30
2022-11-05T05:56:05.804Z,5.28
2022-11-05T05:58:38.476Z,5.29
2022-11-05T06:01:07.392Z,5.31
2022-11-05T06:03:34.738Z,5.31
2022-11-05T06:06:03.260Z,5.27
2022-11-05T06:08:30.308Z,5.27
2022-11-05T06:10:57.017Z,5.25
2022-11-05T06:13:23.656Z,5.21
2022-11-05T06:15:50.110Z,5.20
2022-11-05T06:18:16.530Z,5.18
2022-11-05T06:20:43.269Z,5.15
2022-11-05T06:23:10.103Z,5.14
2022-11-05T06:25:41.061Z,5.12
2022-11-05T06:28:07.973Z,5.14
2022-11-05T06:30:34.430Z,5.11
2022-11-05T06:33:05.405Z,5.10
2022-11-05T06:35:32.262Z,5.11
2022-11-05T06:38:02.398Z,5.11
2022-11-05T06:40:29.055Z,5.12
2022-11-05T06:42:55.638Z,5.10
2022-11-05T06:45:22.075Z,5.11
2022-11-05T06:47:48.480Z,5.11
2022-11-05T06:50:15.033Z,5.11
2022-11-05T06:52:41.535Z,5.12
2022-11-05T06:55:08.413Z,5.12
2022-11-05T06:57:37.528Z,5.13
2022-11-05T07:00:07.811Z,5.14
2022-11-05T07:02:35.766Z,5.15
2022-11-05T07:05:02.202Z,5.15
2022-11-05T07:07:28.594Z,5.16
2022-11-05T07:09:55.038Z,5.18
2022-11-05T07:12:21.494Z,5.17
2022-11-05T07:14:47.917Z,5.18
2022-11-05T07:17:17.509Z,5.17
2022-11-05T07:19:43.967Z,5.17
2022-11-05T07:22:10.384Z,5.19
2022-11-05T07:24:37.078Z,5.20
2022-11-05T07:27:03.657Z,5.19
2022-11-05T07:29:30.094Z,5.22
2022-11-05T07:31:56.562Z,5.25
2022-11-05T07:34:23.034Z,5.24
2022-11-05T07:36:49.480Z,5.24
2022-11-05T07:39:15.964Z,5.24
2022-11-05T07:41:42.447Z,5.28
2022-11-05T07:44:08.904Z,5.27
2022-11-05T07:46:35.358Z,5.30
2022-11-05T07:49:01.905Z,5.34
2022-11-05T07:51:28.332Z,5.40
2022-11-05T07:53:54.795Z,5.46
2022-11-05T07:56:21.515Z,5.51
2022-11-05T07:58:47.993Z,5.57
2022-11-05T08:01:14.608Z,5.63
2022-11-05T08:03:41.249Z,5.72
2022-11-05T08:06:07.763Z,5.80
2022-11-05T08:08:35.281Z,5.86
2022-11-05T08:11:06.648Z,5.96
2022-11-05T08:13:34.240Z,6.06
2022-11-05T08:16:02.015Z,6.18
2022-11-05T08:18:32.592Z,6.33
2022-11-05T08:21:00.804Z,6.49
2022-11-05T08:23:28.406Z,6.62
2022-11-05T08:25:55.656Z,6.77
2022-11-05T08:28:23.460Z,6.93
2022-11-05T08:30:55.319Z,7.05
2022-11-05T08:33:23.537Z,7.17
2022-11-05T08:35:50.609Z,7.29
2022-11-05T08:38:18.854Z,7.44
2022-11-05T08:40:53.920Z,7.60
2022-11-05T08:43:20.781Z,7.90
2022-11-05T08:45:47.334Z,8.25
2022-11-05T08:48:16.791Z,8.57
2022-11-05T08:50:44.562Z,8.82
2022-11-05T08:53:11.855Z,9.06
2022-11-05T08:55:38.728Z,9.39
2022-11-05T08:58:07.619Z,9.60
2022-11-05T09:00:37.047Z,9.81
2022-11-05T09:03:06.684Z,9.84
2022-11-05T09:05:40.519Z,9.76
2022-11-05T09:08:08.782Z,9.83
2022-11-05T09:10:35.938Z,9.81
2022-11-05T09:13:02.587Z,9.73
2022-11-05T09:15:29.428Z,9.56
2022-11-05T09:17:55.952Z,9.68
2022-11-05T09:20:23.249Z,9.83
2022-11-05T09:22:49.818Z,10.13
2022-11-05T09:25:16.513Z,10.26
2022-11-05T09:27:43.823Z,10.64
2022-11-05T09:30:12.325Z,10.71
2022-11-05T09:32:39.131Z,10.75
2022-11-05T09:35:07.001Z,10.98
2022-11-05T09:37:33.925Z,11.16
2022-11-05T09:40:00.511Z,11.31
2022-11-05T09:42:35.344Z,11.46
2022-11-05T09:45:18.846Z,11.27
2022-11-05T09:47:59.734Z,11.07
2022-11-05T09:50:34.740Z,11.46
2022-11-05T09:53:01.896Z,11.35
2022-11-05T09:55:37.028Z,11.01
2022-11-05T09:58:16.290Z,11.13
2022-11-05T10:00:44.489Z,11.02
2022-11-05T10:03:17.682Z,10.98
2022-11-05T10:05:45.648Z,11.11
2022-11-05T10:08:34.541Z,10.91
2022-11-05T10:11:15.352Z,10.69
2022-11-05T10:13:54.357Z,10.74
2022-11-05T10:16:25.706Z,10.70
2022-11-05T10:19:24.504Z,10.67
2022-11-05T10:22:12.815Z,10.76
2022-11-05T10:24:49.146Z,10.75
2022-11-05T10:27:25.753Z,10.84
2022-11-05T10:29:52.897Z,10.96
2022-11-05T10:32:34.807Z,11.08
2022-11-05T10:35:04.057Z,11.04
2022-11-05T10:37:32.929Z,11.01
2022-11-05T10:40:00.834Z,10.97
2022-11-05T10:42:41.787Z,10.98
2022-11-05T10:45:44.839Z,10.95
2022-11-05T10:48:30.010Z,11.00
2022-11-05T10:50:57.642Z,10.99
2022-11-05T10:53:36.298Z,11.05
2022-11-05T10:56:03.153Z,11.06
2022-11-05T10:58:32.635Z,11.24
2022-11-05T11:00:59.084Z,11.31
2022-11-05T11:03:46.475Z,11.44
2022-11-05T11:06:37.669Z,11.56
2022-11-05T11:09:08.550Z,11.74
2022-11-05T11:11:40.609Z,11.73
2022-11-05T11:14:22.084Z,11.66
2022-11-05T11:16:51.259Z,11.61
2022-11-05T11:19:25.510Z,11.66
2022-11-05T11:22:13.589Z,11.95
2022-11-05T11:24:51.795Z,12.16
2022-11-05T11:27:23.221Z,11.94
2022-11-05T11:29:56.956Z,12.07
2022-11-05T11:32:28.506Z,12.15
2022-11-05T11:34:58.112Z,12.25
2022-11-05T11:37:28.645Z,12.21
2022-11-05T11:39:57.003Z,12.32
2022-11-05T11:42:33.972Z,12.39
2022-11-05T11:45:15.826Z,12.02
2022-11-05T11:47:48.924Z,11.59
2022-11-05T11:50:33.545Z,11.72
2022-11-05T11:53:20.271Z,11.73
2022-11-05T11:55:56.005Z,11.63
2022-11-05T11:58:25.605Z,11.69
2022-11-05T12:01:01.807Z,11.61
2022-11-05T12:03:44.619Z,11.67
2022-11-05T12:06:38.115Z,11.57
2022-11-05T12:09:35.213Z,11.56
2022-11-05T12:12:14.038Z,11.43
2022-11-05T12:15:03.580Z,11.31
2022-11-05T12:17:53.472Z,11.14
2022-11-05T12:20:31.948Z,11.15
2022-11-05T12:23:13.469Z,11.24
2022-11-05T12:25:57.825Z,11.22
2022-11-05T12:28:57.717Z,11.01
2022-11-05T12:31:44.399Z,11.10
2022-11-05T12:34:31.059Z,11.11
2022-11-05T12:37:12.953Z,11.16
2022-11-05T12:40:06.780Z,11.18
2022-11-05T12:42:45.272Z,11.23
2022-11-05T12:45:39.222Z,11.29
2022-11-05T12:48:17.603Z,11.28
2022-11-05T12:50:52.552Z,11.27
2022-11-05T12:53:52.668Z,11.19
2022-11-05T12:56:33.555Z,11.20
2022-11-05T12:59:18.292Z,11.25
2022-11-05T13:01:56.504Z,11.24
2022-11-05T13:04:43.549Z,11.24
2022-11-05T13:07:13.731Z,11.13
2022-11-05T13:09:47.871Z,11.19
2022-11-05T13:12:17.022Z,11.25
2022-11-05T13:14:59.266Z,11.29
2022-11-05T13:17:35.477Z,11.36
2022-11-05T13:20:17.672Z,11.33
2022-11-05T13:23:03.908Z,11.29
2022-11-05T13:25:35.572Z,11.35
2022-11-05T13:28:23.914Z,11.41
2022-11-05T13:30:54.567Z,11.38
2022-11-05T13:33:29.100Z,11.40
2022-11-05T13:36:50.281Z,11.44
2022-11-05T13:39:28.724Z,11.28
2022-11-05T13:42:10.355Z,11.37
2022-11-05T13:44:59.894Z,11.33
2022-11-05T13:47:44.752Z,11.26
2022-11-05T13:50:29.322Z,11.33
2022-11-05T13:53:11.133Z,11.39
2022-11-05T13:55:47.513Z,11.33
2022-11-05T13:59:08.634Z,11.36
2022-11-05T14:01:49.882Z,11.37
2022-11-05T14:04:26.521Z,11.37
2022-11-05T14:06:54.310Z,11.33
2022-11-05T14:09:25.906Z,11.37
2022-11-05T14:11:55.835Z,11.42
2022-11-05T14:14:32.683Z,11.44
2022-11-05T14:17:07.910Z,11.40
2022-11-05T14:19:48.783Z,11.31
2022-11-05T14:22:36.574Z,11.33
2022-11-05T14:25:18.374Z,11.34
2022-11-05T14:27:52.479Z,11.28
2022-11-05T14:30:42.753Z,11.24
2022-11-05T14:33:31.554Z,11.19
2022-11-05T14:36:24.267Z,11.24
2022-11-05T14:38:52.474Z,11.20
2022-11-05T14:41:21.124Z,11.25
2022-11-05T14:43:55.455Z,11.26
2022-11-05T14:46:22.045Z,11.22
2022-11-05T14:48:53.092Z,11.20
2022-11-05T14:51:40.319Z,11.22
2022-11-05T14:54:20.400Z,11.16
2022-11-05T14:57:02.474Z,11.15
2022-11-05T14:59:29.041Z,11.13
2022-11-05T15:02:03.462Z,11.17
2022-11-05T15:04:45.444Z,11.17
2022-11-05T15:07:29.607Z,11.13
2022-11-05T15:10:07.147Z,11.12
2022-11-05T15:12:36.352Z,11.13
2022-11-05T15:15:21.572Z,11.07
2022-11-05T15:17:58.234Z,11.03
2022-11-05T15:20:40.016Z,11.06
2022-11-05T15:23:12.735Z,11.00
2022-11-05T15:26:10.617Z,11.03
2022-11-05T15:28:40.440Z,10.95
2022-11-05T15:31:13.067Z,10.95
2022-11-05T15:33:44.696Z,10.96
2022-11-05T15:36:30.814Z,10.95
2022-11-05T15:41:45.100Z,10.88
2022-11-05T15:44:28.676Z,10.85
2022-11-05T15:47:23.060Z,10.82
2022-11-05T15:50:14.735Z,10.78
2022-11-05T15:52:49.839Z,10.70
2022-11-05T15:55:24.038Z,10.65
2022-11-05T15:57:56.802Z,10.63
2022-11-05T16:00:31.974Z,10.65
2022-11-05T16:03:00.532Z,10.64
2022-11-05T16:05:30.089Z,10.53
2022-11-05T16:08:01.217Z,10.46
2022-11-05T16:10:33.582Z,10.44
2022-11-05T16:13:37.497Z,10.43
2022-11-05T16:16:25.818Z,10.39
2022-11-05T16:18:52.824Z,10.39
2022-11-05T16:21:23.375Z,10.34
2022-11-05T16:23:49.834Z,10.35
2022-11-05T16:27:01.175Z,10.32
2022-11-05T16:29:28.309Z,10.26
2022-11-05T16:31:56.473Z,10.21
2022-11-05T16:34:27.803Z,10.22
2022-11-05T16:36:56.359Z,10.23
2022-11-05T16:39:22.911Z,10.22
2022-11-05T16:41:49.495Z,10.22
2022-11-05T16:44:16.134Z,10.19
2022-11-05T16:46:47.113Z,10.18
2022-11-05T16:49:14.044Z,10.13
2022-11-05T16:51:40.817Z,10.14
2022-11-05T16:54:07.504Z,10.12
2022-11-05T16:56:34.193Z,10.12
2022-11-05T16:59:00.703Z,10.09
2022-11-05T17:01:28.035Z,10.00
2022-11-05T17:03:54.568Z,9.99
2022-11-05T17:06:22.070Z,10.00
2022-11-05T17:08:48.691Z,9.99
2022-11-05T17:11:18.074Z,9.89
2022-11-05T17:13:44.680Z,9.92
2022-11-05T17:16:13.074Z,9.98
2022-11-05T17:18:41.004Z,9.94
2022-11-05T17:21:08.980Z,9.89
2022-11-05T17:23:35.843Z,9.91
2022-11-05T17:26:09.790Z,9.87
2022-11-05T17:28:37.834Z,9.89
2022-11-05T17:31:06.820Z,9.85
2022-11-05T17:33:33.563Z,9.88
2022-11-05T17:36:00.272Z,9.82
2022-11-05T17:38:27.203Z,9.78
2022-11-05T17:40:54.015Z,9.80
2022-11-05T17:43:20.518Z,9.76
2022-11-05T17:45:51.992Z,9.79
2022-11-05T17:48:20.038Z,9.76
2022-11-05T17:50:48.919Z,9.76
2022-11-05T17:53:17.866Z,9.74
2022-11-05T17:55:46.098Z,9.76
2022-11-05T17:58:12.786Z,9.70
2022-11-05T18:00:40.835Z,9.71
2022-11-05T18:03:07.427Z,9.73
2022-11-05T18:05:34.681Z,9.70
2022-11-05T18:08:01.456Z,9.68
2022-11-05T18:10:27.900Z,9.67
2022-11-05T18:12:54.567Z,9.62
2022-11-05T18:15:21.513Z,9.61
2022-11-05T18:17:47.967Z,9.62
2022-11-05T18:20:19.107Z,9.60
2022-11-05T18:22:48.076Z,9.62
2022-11-05T18:25:14.710Z,9.61
2022-11-05T18:27:41.646Z,9.57
2022-11-05T18:30:09.642Z,9.58
2022-11-05T18:32:36.878Z,9.60
2022-11-05T18:35:04.025Z,9.62
2022-11-05T18:37:30.547Z,9.61
2022-11-05T18:39:57.000Z,9.60
2022-11-05T18:42:23.795Z,9.61
2022-11-05T18:44:50.262Z,9.61
2022-11-05T18:47:16.916Z,9.61
2022-11-05T18:49:43.349Z,9.64
2022-11-05T18:52:09.816Z,9.61
2022-11-05T18:54:36.485Z,9.58
2022-11-05T18:57:03.072Z,9.62
2022-11-05T18:59:37.790Z,9.61
2022-11-05T19:02:06.104Z,9.61
2022-11-05T19:04:32.851Z,9.58
2022-11-05T19:07:04.543Z,9.52
2022-11-05T19:09:32.120Z,9.56
2022-11-05T19:11:58.722Z,9.57
2022-11-05T19:14:25.269Z,9.59
2022-11-05T19:16:51.748Z,9.59
2022-11-05T19:19:18.234Z,9.60
2022-11-05T19:21:44.915Z,9.57
2022-11-05T19:24:16.668Z,9.57
2022-11-05T19:26:43.478Z,9.60
2022-11-05T19:29:10.020Z,9.56
2022-11-05T19:31:36.988Z,9.56
2022-11-05T19:34:05.297Z,9.54
2022-11-05T19:36:33.314Z,9.56
2022-11-05T19:39:04.982Z,9.58
2022-11-05T19:41:31.521Z,9.58
2022-11-05T19:43:59.189Z,9.56
2022-11-05T19:46:26.110Z,9.57
2022-11-05T19:48:53.164Z,9.59
2022-11-05T19:51:28.220Z,9.52
2022-11-05T19:53:55.787Z,9.57
2022-11-05T19:56:27.777Z,9.53
2022-11-05T19:58:54.420Z,9.53
2022-11-05T20:01:22.661Z,9.51
2022-11-05T20:03:50.320Z,9.44
2022-11-05T20:06:20.493Z,9.46
2022-11-05T20:09:19.509Z,9.43
2022-11-05T20:11:37.395Z,9.40
2022-11-05T20:14:04.923Z,9.38
2022-11-05T20:16:37.811Z,9.41
2022-11-05T20:19:07.004Z,9.36
2022-11-05T20:21:34.076Z,9.34
2022-11-05T20:24:00.814Z,9.33
2022-11-05T20:26:27.571Z,9.34
2022-11-05T20:28:54.577Z,9.38
2022-11-05T20:31:21.550Z,9.36
2022-11-05T20:33:48.146Z,9.39
2022-11-05T20:36:17.177Z,9.36
2022-11-05T20:38:51.165Z,9.37
2022-11-05T20:41:18.265Z,9.40
2022-11-05T20:43:45.444Z,9.38
2022-11-05T20:46:14.505Z,9.40
2022-11-05T20:48:41.826Z,9.40
2022-11-05T20:51:11.757Z,9.43
2022-11-05T20:53:38.660Z,9.41
2022-11-05T20:56:08.587Z,9.41
2022-11-05T20:58:37.087Z,9.39
2022-11-05T21:01:05.645Z,9.33
2022-11-05T21:03:32.604Z,9.35
2022-11-05T21:06:04.019Z,9.31
2022-11-05T21:08:30.667Z,9.29
2022-11-05T21:10:57.437Z,9.31
2022-11-05T21:13:25.012Z,9.28
2022-11-05T21:15:54.327Z,9.31
2022-11-05T21:18:23.306Z,9.24
2022-11-05T21:20:50.740Z,9.24
2022-11-05T21:23:18.063Z,9.24
2022-11-05T21:25:45.113Z,9.23
2022-11-05T21:28:13.257Z,9.24
2022-11-05T21:30:42.300Z,9.24
2022-11-05T21:33:09.166Z,9.20
2022-11-05T21:35:46.182Z,9.18
2022-11-05T21:38:14.562Z,9.19
2022-11-05T21:40:41.648Z,9.20
2022-11-05T21:43:08.737Z,9.09
2022-11-05T21:45:37.573Z,9.05
2022-11-05T21:48:04.182Z,9.00
2022-11-05T21:50:51.318Z,9.00
2022-11-05T21:53:36.815Z,8.95
2022-11-05T21:56:26.755Z,8.91
2022-11-05T21:59:11.523Z,8.91
2022-11-05T22:01:38.111Z,8.88
2022-11-05T22:04:04.921Z,8.87
2022-11-05T22:06:34.422Z,8.86
2022-11-05T22:09:00.868Z,8.82
2022-11-05T22:11:27.499Z,8.83
2022-11-05T22:13:54.010Z,8.82
2022-11-05T22:16:20.509Z,8.75
2022-11-05T22:18:46.978Z,8.76
2022-11-05T22:21:19.465Z,8.68
2022-11-05T22:23:45.961Z,8.65
2022-11-05T22:26:12.640Z,8.61
2022-11-05T22:28:39.101Z,8.64
2022-11-05T22:31:15.151Z,8.61
2022-11-05T22:33:42.318Z,8.59
2022-11-05T22:36:09.648Z,8.51
2022-11-05T22:38:36.298Z,8.51
2022-11-05T22:41:10.040Z,8.49
2022-11-05T22:43:36.977Z,8.51
2022-11-05T22:46:18.923Z,8.50
2022-11-05T22:48:45.974Z,8.47
2022-11-05T22:51:15.139Z,8.48
2022-11-05T22:53:42.247Z,8.46
2022-11-05T22:56:11.663Z,8.47
2022-11-05T22:58:38.995Z,8.46
2022-11-05T23:01:08.038Z,8.43
2022-11-05T23:03:35.273Z,8.40
2022-11-05T23:06:04.867Z,8.38
2022-11-05T23:08:50.933Z,8.35
2022-11-05T23:11:38.788Z,8.36
2022-11-05T23:14:07.531Z,8.37
2022-11-05T23:16:53.262Z,8.34
2022-11-05T23:19:39.812Z,8.33
2022-11-05T23:22:32.912Z,8.30
2022-11-05T23:24:59.621Z,8.32
2022-11-05T23:27:29.914Z,8.34
2022-11-05T23:30:01.110Z,8.34
2022-11-05T23:32:30.814Z,8.36
2022-11-05T23:34:58.777Z,8.37
2022-11-05T23:37:48.777Z,8.38
2022-11-05T23:40:19.291Z,8.35
2022-11-05T23:43:04.807Z,8.35
2022-11-05T23:45:50.752Z,8.35
2022-11-05T23:48:17.342Z,8.27
2022-11-05T23:50:51.750Z,8.26
2022-11-05T23:53:18.872Z,8.27
2022-11-05T23:55:45.501Z,8.27
2022-11-05T23:58:12.431Z,8.26
